sensor_id;sensor_type;location;lat;lon;timestamp;P1;durP1;ratioP1;P2;durP2;ratioP2
13255;SDS011;37913;48.370;10.930;2022-10-16T00:01:41;79.45;;;36.35;;
13255;SDS011;37913;48.370;10.930;2022-10-16T00:04:09;85.70;;;37.38;;
13255;SDS011;37913;48.370;10.930;2022-10-16T00:06:36;85.03;;;37.42;;
13255;SDS011;37913;48.370;10.930;2022-10-16T00:09:04;85.00;;;37.28;;
13255;SDS011;37913;48.370;10.930;2022-10-16T00:11:32;87.07;;;37.85;;
13255;SDS011;37913;48.370;10.930;2022-10-16T00:14:02;90.07;;;38.88;;
13255;SDS011;37913;48.370;10.930;2022-10-16T00:16:30;85.72;;;37.38;;
13255;SDS011;37913;48.370;10.930;2022-10-16T00:18:58;98.05;;;39.47;;
13255;SDS011;37913;48.370;10.930;2022-10-16T00:21:27;96.35;;;39.80;;
13255;SDS011;37913;48.370;10.930;2022-10-16T00:23:56;79.55;;;36.38;;
13255;SDS011;37913;48.370;10.930;2022-10-16T00:26:27;78.32;;;36.30;;
13255;SDS011;37913;48.370;10.930;2022-10-16T00:28:55;86.10;;;37.83;;
13255;SDS011;37913;48.370;10.930;2022-10-16T00:31:23;81.78;;;36.70;;
13255;SDS011;37913;48.370;10.930;2022-10-16T00:33:50;79.85;;;36.08;;
13255;SDS011;37913;48.370;10.930;2022-10-16T00:36:18;83.78;;;37.30;;
13255;SDS011;37913;48.370;10.930;2022-10-16T00:38:49;82.82;;;36.92;;
13255;SDS011;37913;48.370;10.930;2022-10-16T00:41:19;79.47;;;36.28;;
13255;SDS011;37913;48.370;10.930;2022-10-16T00:43:48;91.45;;;38.53;;
13255;SDS011;37913;48.370;10.930;2022-10-16T00:46:17;89.65;;;37.88;;
13255;SDS011;37913;48.370;10.930;2022-10-16T00:48:48;79.20;;;36.13;;
13255;SDS011;37913;48.370;10.930;2022-10-16T00:51:17;91.07;;;37.47;;
13255;SDS011;37913;48.370;10.930;2022-10-16T00:53:49;81.13;;;35.88;;
13255;SDS011;37913;48.370;10.930;2022-10-16T00:56:16;86.68;;;36.40;;
13255;SDS011;37913;48.370;10.930;2022-10-16T00:58:44;82.13;;;36.20;;
13255;SDS011;37913;48.370;10.930;2022-10-16T01:01:11;108.47;;;39.80;;
13255;SDS011;37913;48.370;10.930;2022-10-16T01:03:38;84.30;;;36.83;;
13255;SDS011;37913;48.370;10.930;2022-10-16T01:06:11;74.95;;;35.15;;
13255;SDS011;37913;48.370;10.930;2022-10-16T01:08:52;70.97;;;34.45;;
13255;SDS011;37913;48.370;10.930;2022-10-16T01:11:28;106.97;;;40.22;;
13255;SDS011;37913;48.370;10.930;2022-10-16T01:14:00;76.63;;;35.35;;
13255;SDS011;37913;48.370;10.930;2022-10-16T01:16:35;78.07;;;35.97;;
13255;SDS011;37913;48.370;10.930;2022-10-16T01:19:08;76.40;;;35.20;;
13255;SDS011;37913;48.370;10.930;2022-10-16T01:21:39;97.63;;;39.55;;
13255;SDS011;37913;48.370;10.930;2022-10-16T01:24:11;78.45;;;35.58;;
13255;SDS011;37913;48.370;10.930;2022-10-16T01:27:00;79.35;;;35.70;;
13255;SDS011;37913;48.370;10.930;2022-10-16T01:29:36;114.88;;;42.28;;
13255;SDS011;37913;48.370;10.930;2022-10-16T01:32:09;81.00;;;36.28;;
13255;SDS011;37913;48.370;10.930;2022-10-16T01:34:42;76.00;;;34.97;;
13255;SDS011;37913;48.370;10.930;2022-10-16T01:37:15;81.88;;;36.10;;
13255;SDS011;37913;48.370;10.930;2022-10-16T01:39:47;87.85;;;36.83;;
13255;SDS011;37913;48.370;10.930;2022-10-16T01:42:19;81.68;;;36.15;;
13255;SDS011;37913;48.370;10.930;2022-10-16T01:44:48;78.00;;;35.35;;
13255;SDS011;37913;48.370;10.930;2022-10-16T01:47:17;69.32;;;33.70;;
13255;SDS011;37913;48.370;10.930;2022-10-16T01:49:48;75.07;;;34.58;;
13255;SDS011;37913;48.370;10.930;2022-10-16T01:52:17;73.45;;;34.40;;
13255;SDS011;37913;48.370;10.930;2022-10-16T01:54:48;75.85;;;35.25;;
13255;SDS011;37913;48.370;10.930;2022-10-16T01:57:19;78.22;;;35.35;;
13255;SDS011;37913;48.370;10.930;2022-10-16T01:59:48;79.10;;;35.53;;
13255;SDS011;37913;48.370;10.930;2022-10-16T02:02:19;76.40;;;34.97;;
13255;SDS011;37913;48.370;10.930;2022-10-16T02:04:48;75.07;;;34.80;;
13255;SDS011;37913;48.370;10.930;2022-10-16T02:07:19;76.57;;;34.85;;
13255;SDS011;37913;48.370;10.930;2022-10-16T02:09:46;76.90;;;34.67;;
13255;SDS011;37913;48.370;10.930;2022-10-16T02:12:14;81.80;;;36.00;;
13255;SDS011;37913;48.370;10.930;2022-10-16T02:14:45;76.28;;;34.75;;
13255;SDS011;37913;48.370;10.930;2022-10-16T02:17:12;73.32;;;33.97;;
13255;SDS011;37913;48.370;10.930;2022-10-16T02:19:41;77.85;;;35.30;;
13255;SDS011;37913;48.370;10.930;2022-10-16T02:22:10;74.93;;;33.83;;
13255;SDS011;37913;48.370;10.930;2022-10-16T02:24:43;89.22;;;36.90;;
13255;SDS011;37913;48.370;10.930;2022-10-16T02:27:17;81.95;;;35.42;;
13255;SDS011;37913;48.370;10.930;2022-10-16T02:29:52;83.03;;;35.42;;
13255;SDS011;37913;48.370;10.930;2022-10-16T02:32:26;82.20;;;35.58;;
13255;SDS011;37913;48.370;10.930;2022-10-16T02:34:56;85.72;;;36.55;;
13255;SDS011;37913;48.370;10.930;2022-10-16T02:37:25;81.10;;;35.38;;
13255;SDS011;37913;48.370;10.930;2022-10-16T02:39:53;75.78;;;34.42;;
13255;SDS011;37913;48.370;10.930;2022-10-16T02:42:27;84.53;;;36.38;;
13255;SDS011;37913;48.370;10.930;2022-10-16T02:44:56;90.82;;;37.63;;
13255;SDS011;37913;48.370;10.930;2022-10-16T02:47:23;80.32;;;35.45;;
13255;SDS011;37913;48.370;10.930;2022-10-16T02:49:50;71.90;;;33.67;;
13255;SDS011;37913;48.370;10.930;2022-10-16T02:52:18;89.97;;;37.38;;
13255;SDS011;37913;48.370;10.930;2022-10-16T02:54:47;82.68;;;35.88;;
13255;SDS011;37913;48.370;10.930;2022-10-16T02:57:14;80.80;;;35.50;;
13255;SDS011;37913;48.370;10.930;2022-10-16T02:59:41;83.47;;;36.08;;
13255;SDS011;37913;48.370;10.930;2022-10-16T03:02:09;84.25;;;36.13;;
13255;SDS011;37913;48.370;10.930;2022-10-16T03:04:36;89.78;;;37.42;;
13255;SDS011;37913;48.370;10.930;2022-10-16T03:07:04;74.15;;;34.13;;
13255;SDS011;37913;48.370;10.930;2022-10-16T03:09:31;84.22;;;36.35;;
13255;SDS011;37913;48.370;10.930;2022-10-16T03:11:58;86.95;;;36.58;;
13255;SDS011;37913;48.370;10.930;2022-10-16T03:14:25;84.68;;;36.65;;
13255;SDS011;37913;48.370;10.930;2022-10-16T03:16:52;84.38;;;35.85;;
13255;SDS011;37913;48.370;10.930;2022-10-16T03:19:21;84.13;;;36.28;;
13255;SDS011;37913;48.370;10.930;2022-10-16T03:21:48;84.47;;;36.83;;
13255;SDS011;37913;48.370;10.930;2022-10-16T03:24:15;87.90;;;37.17;;
13255;SDS011;37913;48.370;10.930;2022-10-16T03:26:42;79.82;;;35.50;;
13255;SDS011;37913;48.370;10.930;2022-10-16T03:29:08;81.10;;;36.35;;
13255;SDS011;37913;48.370;10.930;2022-10-16T03:31:35;75.85;;;35.15;;
13255;SDS011;37913;48.370;10.930;2022-10-16T03:34:02;76.53;;;35.47;;
13255;SDS011;37913;48.370;10.930;2022-10-16T03:36:31;85.53;;;37.05;;
13255;SDS011;37913;48.370;10.930;2022-10-16T03:38:58;73.22;;;35.00;;
13255;SDS011;37913;48.370;10.930;2022-10-16T03:41:25;81.20;;;36.55;;
13255;SDS011;37913;48.370;10.930;2022-10-16T03:43:51;83.25;;;37.03;;
13255;SDS011;37913;48.370;10.930;2022-10-16T03:46:19;91.07;;;37.40;;
13255;SDS011;37913;48.370;10.930;2022-10-16T03:48:46;83.03;;;37.15;;
13255;SDS011;37913;48.370;10.930;2022-10-16T03:51:13;84.60;;;37.50;;
13255;SDS011;37913;48.370;10.930;2022-10-16T03:53:41;83.40;;;36.58;;
13255;SDS011;37913;48.370;10.930;2022-10-16T03:56:08;80.53;;;36.40;;
13255;SDS011;37913;48.370;10.930;2022-10-16T03:58:35;81.05;;;36.35;;
13255;SDS011;37913;48.370;10.930;2022-10-16T04:01:02;81.43;;;36.40;;
13255;SDS011;37913;48.370;10.930;2022-10-16T04:03:29;88.72;;;37.70;;
13255;SDS011;37913;48.370;10.930;2022-10-16T04:05:56;82.30;;;36.72;;
13255;SDS011;37913;48.370;10.930;2022-10-16T04:08:23;86.57;;;37.80;;
13255;SDS011;37913;48.370;10.930;2022-10-16T04:10:51;80.38;;;36.13;;
13255;SDS011;37913;48.370;10.930;2022-10-16T04:13:18;85.88;;;36.97;;
13255;SDS011;37913;48.370;10.930;2022-10-16T04:15:45;78.97;;;35.63;;
13255;SDS011;37913;48.370;10.930;2022-10-16T04:18:12;84.32;;;37.08;;
13255;SDS011;37913;48.370;10.930;2022-10-16T04:20:39;72.60;;;34.70;;
13255;SDS011;37913;48.370;10.930;2022-10-16T04:23:06;81.97;;;36.25;;
13255;SDS011;37913;48.370;10.930;2022-10-16T04:25:33;82.40;;;35.83;;
13255;SDS011;37913;48.370;10.930;2022-10-16T04:28:02;86.60;;;37.00;;
13255;SDS011;37913;48.370;10.930;2022-10-16T04:30:29;82.22;;;35.60;;
13255;SDS011;37913;48.370;10.930;2022-10-16T04:32:56;84.55;;;36.22;;
13255;SDS011;37913;48.370;10.930;2022-10-16T04:35:25;88.03;;;37.20;;
13255;SDS011;37913;48.370;10.930;2022-10-16T04:37:52;82.18;;;36.50;;
13255;SDS011;37913;48.370;10.930;2022-10-16T04:40:19;89.80;;;37.78;;
13255;SDS011;37913;48.370;10.930;2022-10-16T04:42:46;74.43;;;34.35;;
13255;SDS011;37913;48.370;10.930;2022-10-16T04:45:14;85.18;;;36.78;;
13255;SDS011;37913;48.370;10.930;2022-10-16T04:47:41;80.82;;;36.17;;
13255;SDS011;37913;48.370;10.930;2022-10-16T04:50:08;70.53;;;34.20;;
13255;SDS011;37913;48.370;10.930;2022-10-16T04:52:35;79.18;;;35.47;;
13255;SDS011;37913;48.370;10.930;2022-10-16T04:55:03;81.78;;;35.80;;
13255;SDS011;37913;48.370;10.930;2022-10-16T04:57:30;90.13;;;37.58;;
13255;SDS011;37913;48.370;10.930;2022-10-16T04:59:58;81.78;;;35.97;;
13255;SDS011;37913;48.370;10.930;2022-10-16T05:02:26;83.63;;;36.20;;
13255;SDS011;37913;48.370;10.930;2022-10-16T05:04:53;95.97;;;37.55;;
13255;SDS011;37913;48.370;10.930;2022-10-16T05:07:20;79.68;;;35.28;;
13255;SDS011;37913;48.370;10.930;2022-10-16T05:09:47;79.78;;;35.35;;
13255;SDS011;37913;48.370;10.930;2022-10-16T05:12:14;82.00;;;36.00;;
13255;SDS011;37913;48.370;10.930;2022-10-16T05:14:41;80.40;;;35.60;;
13255;SDS011;37913;48.370;10.930;2022-10-16T05:17:08;80.22;;;35.47;;
13255;SDS011;37913;48.370;10.930;2022-10-16T05:19:38;83.40;;;36.03;;
13255;SDS011;37913;48.370;10.930;2022-10-16T05:22:07;82.03;;;35.88;;
13255;SDS011;37913;48.370;10.930;2022-10-16T05:24:34;80.57;;;35.35;;
13255;SDS011;37913;48.370;10.930;2022-10-16T05:27:01;81.72;;;36.08;;
13255;SDS011;37913;48.370;10.930;2022-10-16T05:29:28;83.57;;;35.85;;
13255;SDS011;37913;48.370;10.930;2022-10-16T05:31:55;82.07;;;35.35;;
13255;SDS011;37913;48.370;10.930;2022-10-16T05:34:22;79.85;;;35.17;;
13255;SDS011;37913;48.370;10.930;2022-10-16T05:36:50;83.30;;;35.65;;
13255;SDS011;37913;48.370;10.930;2022-10-16T05:39:17;87.53;;;36.90;;
13255;SDS011;37913;48.370;10.930;2022-10-16T05:41:45;86.18;;;36.05;;
13255;SDS011;37913;48.370;10.930;2022-10-16T05:44:12;84.32;;;35.80;;
13255;SDS011;37913;48.370;10.930;2022-10-16T05:46:39;79.78;;;35.17;;
13255;SDS011;37913;48.370;10.930;2022-10-16T05:49:07;86.47;;;36.95;;
13255;SDS011;37913;48.370;10.930;2022-10-16T05:51:34;90.63;;;37.10;;
13255;SDS011;37913;48.370;10.930;2022-10-16T05:54:03;86.22;;;36.70;;
13255;SDS011;37913;48.370;10.930;2022-10-16T05:56:30;89.28;;;38.15;;
13255;SDS011;37913;48.370;10.930;2022-10-16T05:58:57;81.32;;;35.72;;
13255;SDS011;37913;48.370;10.930;2022-10-16T06:01:24;85.10;;;35.30;;
13255;SDS011;37913;48.370;10.930;2022-10-16T06:03:51;84.57;;;35.75;;
13255;SDS011;37913;48.370;10.930;2022-10-16T06:06:19;84.13;;;35.97;;
13255;SDS011;37913;48.370;10.930;2022-10-16T06:08:49;86.53;;;37.67;;
13255;SDS011;37913;48.370;10.930;2022-10-16T06:11:18;85.55;;;36.60;;
13255;SDS011;37913;48.370;10.930;2022-10-16T06:13:48;87.53;;;36.30;;
13255;SDS011;37913;48.370;10.930;2022-10-16T06:16:16;89.70;;;37.63;;
13255;SDS011;37913;48.370;10.930;2022-10-16T06:18:43;90.57;;;37.40;;
13255;SDS011;37913;48.370;10.930;2022-10-16T06:21:11;80.07;;;35.78;;
13255;SDS011;37913;48.370;10.930;2022-10-16T06:23:40;82.85;;;36.55;;
13255;SDS011;37913;48.370;10.930;2022-10-16T06:26:07;80.05;;;35.55;;
13255;SDS011;37913;48.370;10.930;2022-10-16T06:28:36;82.07;;;35.70;;
13255;SDS011;37913;48.370;10.930;2022-10-16T06:31:04;93.47;;;37.85;;
13255;SDS011;37913;48.370;10.930;2022-10-16T06:33:32;81.35;;;36.33;;
13255;SDS011;37913;48.370;10.930;2022-10-16T06:36:00;85.05;;;36.90;;
13255;SDS011;37913;48.370;10.930;2022-10-16T06:38:27;84.72;;;37.10;;
13255;SDS011;37913;48.370;10.930;2022-10-16T06:40:54;77.38;;;35.92;;
13255;SDS011;37913;48.370;10.930;2022-10-16T06:43:21;93.35;;;38.83;;
13255;SDS011;37913;48.370;10.930;2022-10-16T06:45:51;90.90;;;38.58;;
13255;SDS011;37913;48.370;10.930;2022-10-16T06:48:19;82.45;;;36.88;;
13255;SDS011;37913;48.370;10.930;2022-10-16T06:50:54;86.53;;;37.75;;
13255;SDS011;37913;48.370;10.930;2022-10-16T06:53:22;81.68;;;36.83;;
13255;SDS011;37913;48.370;10.930;2022-10-16T06:55:49;83.93;;;36.78;;
13255;SDS011;37913;48.370;10.930;2022-10-16T06:58:16;79.70;;;36.58;;
13255;SDS011;37913;48.370;10.930;2022-10-16T07:00:43;97.30;;;40.65;;
13255;SDS011;37913;48.370;10.930;2022-10-16T07:03:12;82.72;;;37.35;;
13255;SDS011;37913;48.370;10.930;2022-10-16T07:05:39;88.10;;;39.83;;
13255;SDS011;37913;48.370;10.930;2022-10-16T07:08:07;83.40;;;38.28;;
13255;SDS011;37913;48.370;10.930;2022-10-16T07:10:35;86.05;;;38.13;;
13255;SDS011;37913;48.370;10.930;2022-10-16T07:13:02;82.15;;;37.38;;
13255;SDS011;37913;48.370;10.930;2022-10-16T07:15:29;81.07;;;38.53;;
13255;SDS011;37913;48.370;10.930;2022-10-16T07:17:56;84.32;;;37.80;;
13255;SDS011;37913;48.370;10.930;2022-10-16T07:20:24;81.07;;;37.33;;
13255;SDS011;37913;48.370;10.930;2022-10-16T07:22:51;85.80;;;38.80;;
13255;SDS011;37913;48.370;10.930;2022-10-16T07:25:18;91.25;;;39.45;;
13255;SDS011;37913;48.370;10.930;2022-10-16T07:27:45;96.88;;;41.47;;
13255;SDS011;37913;48.370;10.930;2022-10-16T07:30:12;94.63;;;40.40;;
13255;SDS011;37913;48.370;10.930;2022-10-16T07:32:39;84.00;;;38.53;;
13255;SDS011;37913;48.370;10.930;2022-10-16T07:35:06;88.25;;;39.35;;
13255;SDS011;37913;48.370;10.930;2022-10-16T07:37:34;91.82;;;40.40;;
13255;SDS011;37913;48.370;10.930;2022-10-16T07:40:03;94.38;;;40.15;;
13255;SDS011;37913;48.370;10.930;2022-10-16T07:42:30;91.57;;;40.05;;
13255;SDS011;37913;48.370;10.930;2022-10-16T07:44:57;101.95;;;41.75;;
13255;SDS011;37913;48.370;10.930;2022-10-16T07:47:24;88.85;;;39.38;;
13255;SDS011;37913;48.370;10.930;2022-10-16T07:49:51;93.90;;;39.88;;
13255;SDS011;37913;48.370;10.930;2022-10-16T07:52:18;84.20;;;38.53;;
13255;SDS011;37913;48.370;10.930;2022-10-16T07:54:46;93.55;;;40.47;;
13255;SDS011;37913;48.370;10.930;2022-10-16T07:57:13;87.65;;;39.38;;
13255;SDS011;37913;48.370;10.930;2022-10-16T07:59:44;96.85;;;41.05;;
13255;SDS011;37913;48.370;10.930;2022-10-16T08:02:11;85.43;;;39.35;;
13255;SDS011;37913;48.370;10.930;2022-10-16T08:04:38;91.30;;;40.30;;
13255;SDS011;37913;48.370;10.930;2022-10-16T08:07:06;90.80;;;39.88;;
13255;SDS011;37913;48.370;10.930;2022-10-16T08:09:34;96.18;;;41.80;;
13255;SDS011;37913;48.370;10.930;2022-10-16T08:12:02;92.55;;;41.25;;
13255;SDS011;37913;48.370;10.930;2022-10-16T08:14:30;96.55;;;42.42;;
13255;SDS011;37913;48.370;10.930;2022-10-16T08:16:57;93.32;;;41.83;;
13255;SDS011;37913;48.370;10.930;2022-10-16T08:19:24;99.60;;;43.58;;
13255;SDS011;37913;48.370;10.930;2022-10-16T08:21:51;93.50;;;43.08;;
13255;SDS011;37913;48.370;10.930;2022-10-16T08:24:17;90.93;;;43.05;;
13255;SDS011;37913;48.370;10.930;2022-10-16T08:26:45;87.80;;;43.03;;
13255;SDS011;37913;48.370;10.930;2022-10-16T08:29:14;91.38;;;44.22;;
13255;SDS011;37913;48.370;10.930;2022-10-16T08:31:41;94.95;;;45.00;;
13255;SDS011;37913;48.370;10.930;2022-10-16T08:34:08;97.72;;;50.72;;
13255;SDS011;37913;48.370;10.930;2022-10-16T08:36:34;87.88;;;44.88;;
13255;SDS011;37913;48.370;10.930;2022-10-16T08:39:01;90.65;;;46.38;;
13255;SDS011;37913;48.370;10.930;2022-10-16T08:41:53;86.07;;;46.00;;
13255;SDS011;37913;48.370;10.930;2022-10-16T08:44:41;94.38;;;47.95;;
13255;SDS011;37913;48.370;10.930;2022-10-16T08:47:35;89.82;;;48.92;;
13255;SDS011;37913;48.370;10.930;2022-10-16T08:50:11;88.15;;;47.58;;
13255;SDS011;37913;48.370;10.930;2022-10-16T08:52:43;84.28;;;47.63;;
13255;SDS011;37913;48.370;10.930;2022-10-16T08:55:16;94.45;;;49.78;;
13255;SDS011;37913;48.370;10.930;2022-10-16T08:57:54;89.68;;;47.88;;
13255;SDS011;37913;48.370;10.930;2022-10-16T09:00:23;87.95;;;48.20;;
13255;SDS011;37913;48.370;10.930;2022-10-16T09:02:52;88.60;;;46.95;;
13255;SDS011;37913;48.370;10.930;2022-10-16T09:05:36;100.45;;;48.58;;
13255;SDS011;37913;48.370;10.930;2022-10-16T09:08:28;93.15;;;54.97;;
13255;SDS011;37913;48.370;10.930;2022-10-16T09:11:01;109.05;;;55.63;;
13255;SDS011;37913;48.370;10.930;2022-10-16T09:13:35;94.22;;;57.47;;
13255;SDS011;37913;48.370;10.930;2022-10-16T09:16:14;95.60;;;59.83;;
13255;SDS011;37913;48.370;10.930;2022-10-16T09:18:48;100.53;;;61.38;;
13255;SDS011;37913;48.370;10.930;2022-10-16T09:21:23;102.30;;;66.05;;
13255;SDS011;37913;48.370;10.930;2022-10-16T09:23:52;100.15;;;68.68;;
13255;SDS011;37913;48.370;10.930;2022-10-16T09:26:23;101.07;;;72.57;;
13255;SDS011;37913;48.370;10.930;2022-10-16T09:28:51;103.47;;;79.93;;
13255;SDS011;37913;48.370;10.930;2022-10-16T09:31:21;107.80;;;84.65;;
13255;SDS011;37913;48.370;10.930;2022-10-16T09:33:50;93.57;;;83.35;;
13255;SDS011;37913;48.370;10.930;2022-10-16T09:36:20;107.53;;;86.35;;
13255;SDS011;37913;48.370;10.930;2022-10-16T09:38:47;102.25;;;91.15;;
13255;SDS011;37913;48.370;10.930;2022-10-16T09:41:16;97.78;;;87.55;;
13255;SDS011;37913;48.370;10.930;2022-10-16T09:43:48;101.63;;;91.45;;
13255;SDS011;37913;48.370;10.930;2022-10-16T09:46:24;105.82;;;94.80;;
13255;SDS011;37913;48.370;10.930;2022-10-16T09:48:54;101.90;;;85.82;;
13255;SDS011;37913;48.370;10.930;2022-10-16T09:51:24;101.85;;;81.43;;
13255;SDS011;37913;48.370;10.930;2022-10-16T09:53:57;96.95;;;79.53;;
13255;SDS011;37913;48.370;10.930;2022-10-16T09:59:08;92.40;;;64.40;;
13255;SDS011;37913;48.370;10.930;2022-10-16T10:01:40;88.10;;;60.00;;
13255;SDS011;37913;48.370;10.930;2022-10-16T10:04:08;90.95;;;58.10;;
13255;SDS011;37913;48.370;10.930;2022-10-16T10:06:37;80.78;;;56.15;;
13255;SDS011;37913;48.370;10.930;2022-10-16T10:09:16;94.88;;;59.00;;
13255;SDS011;37913;48.370;10.930;2022-10-16T10:11:48;98.10;;;60.65;;
13255;SDS011;37913;48.370;10.930;2022-10-16T10:14:23;92.00;;;62.78;;
13255;SDS011;37913;48.370;10.930;2022-10-16T10:17:02;92.65;;;64.25;;
13255;SDS011;37913;48.370;10.930;2022-10-16T10:19:38;91.47;;;67.57;;
13255;SDS011;37913;48.370;10.930;2022-10-16T10:22:13;88.07;;;67.75;;
13255;SDS011;37913;48.370;10.930;2022-10-16T10:24:43;103.50;;;70.47;;
13255;SDS011;37913;48.370;10.930;2022-10-16T10:27:12;99.05;;;67.75;;
13255;SDS011;37913;48.370;10.930;2022-10-16T10:29:45;98.30;;;64.97;;
13255;SDS011;37913;48.370;10.930;2022-10-16T10:32:24;87.57;;;61.03;;
13255;SDS011;37913;48.370;10.930;2022-10-16T10:35:05;99.63;;;63.88;;
13255;SDS011;37913;48.370;10.930;2022-10-16T10:37:47;96.45;;;59.33;;
13255;SDS011;37913;48.370;10.930;2022-10-16T10:40:23;95.68;;;59.03;;
13255;SDS011;37913;48.370;10.930;2022-10-16T10:43:01;100.47;;;58.08;;
13255;SDS011;37913;48.370;10.930;2022-10-16T10:45:37;99.35;;;57.08;;
13255;SDS011;37913;48.370;10.930;2022-10-16T10:48:19;91.22;;;55.28;;
13255;SDS011;37913;48.370;10.930;2022-10-16T10:50:55;97.57;;;57.78;;
13255;SDS011;37913;48.370;10.930;2022-10-16T10:53:34;83.32;;;55.70;;
13255;SDS011;37913;48.370;10.930;2022-10-16T10:56:11;101.70;;;60.42;;
13255;SDS011;37913;48.370;10.930;2022-10-16T10:59:02;92.90;;;59.70;;
13255;SDS011;37913;48.370;10.930;2022-10-16T11:01:45;96.60;;;60.72;;
13255;SDS011;37913;48.370;10.930;2022-10-16T11:04:25;96.07;;;60.67;;
13255;SDS011;37913;48.370;10.930;2022-10-16T11:07:12;91.50;;;58.17;;
13255;SDS011;37913;48.370;10.930;2022-10-16T11:09:44;104.15;;;62.85;;
13255;SDS011;37913;48.370;10.930;2022-10-16T11:12:15;102.47;;;63.53;;
13255;SDS011;37913;48.370;10.930;2022-10-16T11:14:46;113.47;;;64.80;;
13255;SDS011;37913;48.370;10.930;2022-10-16T11:17:18;133.57;;;70.13;;
13255;SDS011;37913;48.370;10.930;2022-10-16T11:19:53;94.85;;;61.28;;
13255;SDS011;37913;48.370;10.930;2022-10-16T11:22:25;94.18;;;62.67;;
13255;SDS011;37913;48.370;10.930;2022-10-16T11:24:59;113.53;;;67.78;;
13255;SDS011;37913;48.370;10.930;2022-10-16T11:27:34;99.07;;;65.20;;
13255;SDS011;37913;48.370;10.930;2022-10-16T11:30:04;100.13;;;67.38;;
13255;SDS011;37913;48.370;10.930;2022-10-16T11:32:43;102.10;;;69.60;;
13255;SDS011;37913;48.370;10.930;2022-10-16T11:35:21;106.93;;;72.88;;
13255;SDS011;37913;48.370;10.930;2022-10-16T11:37:51;100.93;;;72.32;;
13255;SDS011;37913;48.370;10.930;2022-10-16T11:40:22;99.25;;;70.63;;
13255;SDS011;37913;48.370;10.930;2022-10-16T11:42:56;96.85;;;70.22;;
13255;SDS011;37913;48.370;10.930;2022-10-16T11:45:30;101.70;;;76.22;;
13255;SDS011;37913;48.370;10.930;2022-10-16T11:48:04;103.43;;;80.18;;
13255;SDS011;37913;48.370;10.930;2022-10-16T11:50:42;108.22;;;80.60;;
13255;SDS011;37913;48.370;10.930;2022-10-16T11:53:16;100.88;;;80.25;;
13255;SDS011;37913;48.370;10.930;2022-10-16T11:55:49;96.63;;;77.25;;
13255;SDS011;37913;48.370;10.930;2022-10-16T11:58:20;104.13;;;75.20;;
13255;SDS011;37913;48.370;10.930;2022-10-16T12:00:55;109.68;;;74.25;;
13255;SDS011;37913;48.370;10.930;2022-10-16T12:03:27;93.93;;;69.60;;
13255;SDS011;37913;48.370;10.930;2022-10-16T12:06:05;97.28;;;72.00;;
13255;SDS011;37913;48.370;10.930;2022-10-16T12:08:43;106.07;;;78.53;;
13255;SDS011;37913;48.370;10.930;2022-10-16T12:11:33;124.68;;;88.10;;
13255;SDS011;37913;48.370;10.930;2022-10-16T12:14:06;101.07;;;88.82;;
13255;SDS011;37913;48.370;10.930;2022-10-16T12:17:02;107.05;;;95.75;;
13255;SDS011;37913;48.370;10.930;2022-10-16T12:19:31;111.45;;;99.90;;
13255;SDS011;37913;48.370;10.930;2022-10-16T12:22:01;106.45;;;95.57;;
13255;SDS011;37913;48.370;10.930;2022-10-16T12:24:33;105.90;;;94.22;;
13255;SDS011;37913;48.370;10.930;2022-10-16T12:27:02;103.45;;;89.60;;
13255;SDS011;37913;48.370;10.930;2022-10-16T12:29:36;98.97;;;87.03;;
13255;SDS011;37913;48.370;10.930;2022-10-16T12:32:05;104.35;;;85.80;;
13255;SDS011;37913;48.370;10.930;2022-10-16T12:34:46;109.35;;;84.72;;
13255;SDS011;37913;48.370;10.930;2022-10-16T12:37:18;106.78;;;82.55;;
13255;SDS011;37913;48.370;10.930;2022-10-16T12:39:49;100.90;;;81.40;;
13255;SDS011;37913;48.370;10.930;2022-10-16T12:42:21;104.07;;;83.60;;
13255;SDS011;37913;48.370;10.930;2022-10-16T12:44:57;100.88;;;84.63;;
13255;SDS011;37913;48.370;10.930;2022-10-16T12:47:34;99.53;;;85.88;;
13255;SDS011;37913;48.370;10.930;2022-10-16T12:50:03;100.60;;;84.93;;
13255;SDS011;37913;48.370;10.930;2022-10-16T12:52:50;99.82;;;85.72;;
13255;SDS011;37913;48.370;10.930;2022-10-16T12:55:18;109.25;;;97.43;;
13255;SDS011;37913;48.370;10.930;2022-10-16T12:57:50;102.57;;;84.57;;
13255;SDS011;37913;48.370;10.930;2022-10-16T13:00:39;108.15;;;87.78;;
13255;SDS011;37913;48.370;10.930;2022-10-16T13:03:22;105.88;;;88.28;;
13255;SDS011;37913;48.370;10.930;2022-10-16T13:06:00;102.03;;;90.55;;
13255;SDS011;37913;48.370;10.930;2022-10-16T13:08:45;106.65;;;95.28;;
13255;SDS011;37913;48.370;10.930;2022-10-16T13:11:23;107.18;;;96.07;;
13255;SDS011;37913;48.370;10.930;2022-10-16T13:14:02;109.55;;;98.47;;
13255;SDS011;37913;48.370;10.930;2022-10-16T13:16:52;114.75;;;102.45;;
13255;SDS011;37913;48.370;10.930;2022-10-16T13:19:29;114.88;;;103.25;;
13255;SDS011;37913;48.370;10.930;2022-10-16T13:22:05;113.18;;;101.97;;
13255;SDS011;37913;48.370;10.930;2022-10-16T13:24:48;117.38;;;105.65;;
13255;SDS011;37913;48.370;10.930;2022-10-16T13:27:28;114.13;;;102.72;;
13255;SDS011;37913;48.370;10.930;2022-10-16T13:30:02;109.32;;;97.82;;
13255;SDS011;37913;48.370;10.930;2022-10-16T13:32:38;118.45;;;104.50;;
13255;SDS011;37913;48.370;10.930;2022-10-16T13:35:15;111.15;;;99.75;;
13255;SDS011;37913;48.370;10.930;2022-10-16T13:37:46;120.13;;;108.15;;
13255;SDS011;37913;48.370;10.930;2022-10-16T13:40:19;119.03;;;105.38;;
13255;SDS011;37913;48.370;10.930;2022-10-16T13:42:47;114.65;;;102.57;;
13255;SDS011;37913;48.370;10.930;2022-10-16T13:45:18;108.03;;;97.03;;
13255;SDS011;37913;48.370;10.930;2022-10-16T13:47:46;119.00;;;98.75;;
13255;SDS011;37913;48.370;10.930;2022-10-16T13:50:14;106.40;;;94.90;;
13255;SDS011;37913;48.370;10.930;2022-10-16T13:52:42;108.05;;;95.38;;
13255;SDS011;37913;48.370;10.930;2022-10-16T13:55:12;110.38;;;98.00;;
13255;SDS011;37913;48.370;10.930;2022-10-16T13:57:42;109.45;;;97.32;;
13255;SDS011;37913;48.370;10.930;2022-10-16T14:00:20;109.93;;;98.32;;
13255;SDS011;37913;48.370;10.930;2022-10-16T14:02:50;115.90;;;100.95;;
13255;SDS011;37913;48.370;10.930;2022-10-16T14:05:21;108.85;;;97.50;;
13255;SDS011;37913;48.370;10.930;2022-10-16T14:07:49;107.88;;;96.85;;
13255;SDS011;37913;48.370;10.930;2022-10-16T14:10:22;116.00;;;103.88;;
13255;SDS011;37913;48.370;10.930;2022-10-16T14:12:56;105.63;;;95.07;;
13255;SDS011;37913;48.370;10.930;2022-10-16T14:15:24;107.55;;;96.97;;
13255;SDS011;37913;48.370;10.930;2022-10-16T14:17:51;108.18;;;95.28;;
13255;SDS011;37913;48.370;10.930;2022-10-16T14:20:20;113.03;;;101.00;;
13255;SDS011;37913;48.370;10.930;2022-10-16T14:22:58;102.80;;;91.53;;
13255;SDS011;37913;48.370;10.930;2022-10-16T14:25:27;110.20;;;92.00;;
13255;SDS011;37913;48.370;10.930;2022-10-16T14:27:58;97.75;;;84.50;;
13255;SDS011;37913;48.370;10.930;2022-10-16T14:30:27;104.47;;;85.15;;